Time;durP1;ratioP1;P1;durP2;ratioP2;P2;SDS_P1;SDS_P2;PMS_P1;PMS_P2;Temp;Humidity;BMP_temperature;BMP_pressure;BME280_temperature;BME280_humidity;BME280_pressure;Samples;Min_cycle;Max_cycle;Signal;HPM_P1;HPM_P2
2020/12/20 00:26:07;30744.00;0.10;53.87;0.00;0.00;0.62;;;;;13.30;1.00;;;;;;2506327;55;3587;31
2020/12/20 00:31:01;120249.00;0.40;208.51;0.00;0.00;0.62;;;;;13.60;1.00;;;;;;2507083;40;3540;31
2020/12/20 00:35:56;52732.00;0.18;91.91;0.00;0.00;0.62;;;;;13.70;1.00;;;;;;2506877;40;3889;31
2020/12/20 00:53:21;36898.00;0.12;64.52;0.00;0.00;0.62;;;;;13.60;1.00;;;;;;2509784;55;3588;31
2020/12/20 00:58:15;0.00;0.00;0.62;0.00;0.00;0.62;;;;;14.00;1.00;;;;;;2509630;55;3573;31
2020/12/20 01:00:41;154356.00;0.51;267.31;0.00;0.00;0.62;;;;;14.30;1.00;;;;;;2509099;55;3926;31
2020/12/20 01:03:07;199653.00;0.67;345.33;0.00;0.00;0.62;;;;;14.50;1.00;;;;;;2504951;55;3957;31
2020/12/20 01:05:34;41933.00;0.14;73.23;0.00;0.00;0.62;;;;;14.50;1.00;;;;;;2505691;40;3814;31
2020/12/20 01:08:00;73892.00;0.25;128.49;0.00;0.00;0.62;;;;;14.20;1.00;;;;;;2509783;40;3534;31
2020/12/20 01:17:51;118880.00;0.40;206.15;0.00;0.00;0.62;;;;;14.10;1.00;;;;;;2504405;55;3597;31
2020/12/20 01:22:45;117991336.00;393.30;66540296.00;79515.00;0.27;138.20;;;;;14.30;1.00;;;;;;2504293;55;3570;31
2020/12/20 01:25:11;416346.00;1.39;717.91;106992.00;0.36;185.64;;;;;14.30;1.00;;;;;;2504916;40;3779;31
2020/12/20 01:27:37;295422.00;0.98;510.05;78307.00;0.26;136.11;;;;;14.10;1.00;;;;;;2505024;40;3579;31
2020/12/20 01:32:31;67895.00;0.23;118.12;0.00;0.00;0.62;;;;;14.00;1.00;;;;;;2504705;55;3751;31
2020/12/20 01:37:27;20915.00;0.07;36.85;0.00;0.00;0.62;;;;;14.40;1.00;;;;;;2282961;61;896;-90
2020/12/20 01:42:21;118056792.00;393.52;66651204.00;117897688.00;392.99;66381836.00;;;;;14.50;1.00;;;;;;2504701;55;3569;31
2020/12/20 01:47:16;141797.00;0.47;245.67;0.00;0.00;0.62;;;;;14.40;1.00;;;;;;2503964;55;3553;31
2020/12/20 01:52:11;37772.00;0.13;66.03;0.00;0.00;0.62;;;;;14.40;1.00;;;;;;2504700;55;3613;31
2020/12/20 01:57:07;156088.00;0.52;270.30;0.00;0.00;0.62;;;;;13.50;1.00;;;;;;2282704;61;1230;-89
2020/12/20 01:59:36;165104.00;0.55;285.83;0.00;0.00;0.62;;;;;13.50;1.00;;;;;;2280681;61;1994;-87
2020/12/20 02:02:03;0.00;0.00;0.62;0.00;0.00;0.62;;;;;13.20;1.00;;;;;;2268004;61;978;-89
2020/12/20 02:04:29;45583.00;0.15;79.55;0.00;0.00;0.62;;;;;13.00;1.00;;;;;;2263901;61;1420;-90
2020/12/20 02:06:57;26810.00;0.09;47.06;0.00;0.00;0.62;;;;;13.00;1.00;;;;;;2260617;61;951;-88
2020/12/20 02:09:23;50559.00;0.17;88.15;0.00;0.00;0.62;;;;;13.10;1.00;;;;;;2260636;61;983;-88
2020/12/20 02:11:50;9564.00;0.03;17.19;0.00;0.00;0.62;;;;;13.50;1.00;;;;;;2264016;61;1150;-90
2020/12/20 02:14:17;0.00;0.00;0.62;0.00;0.00;0.62;;;;;13.70;1.00;;;;;;2259879;61;1305;-89
2020/12/20 02:16:44;0.00;0.00;0.62;0.00;0.00;0.62;;;;;14.00;1.00;;;;;;2259913;61;1060;-89
2020/12/20 02:19:11;0.00;0.00;0.62;0.00;0.00;0.62;;;;;13.70;1.00;;;;;;2260834;61;1096;-89
2020/12/20 02:21:38;120064.00;0.40;208.19;0.00;0.00;0.62;;;;;13.70;1.00;;;;;;2268433;61;2009;-89
2020/12/20 02:24:05;0.00;0.00;0.62;0.00;0.00;0.62;;;;;14.00;1.00;;;;;;2272030;61;1423;-89
2020/12/20 02:26:31;67239.00;0.22;116.99;0.00;0.00;0.62;;;;;14.30;1.00;;;;;;2271989;61;989;-90
2020/12/20 02:28:58;27354.00;0.09;48.00;0.00;0.00;0.62;;;;;14.40;1.00;;;;;;2271987;61;1110;-88
2020/12/20 02:31:26;88657.00;0.30;153.99;0.00;0.00;0.62;;;;;14.50;1.00;;;;;;2272973;61;1033;-90
2020/12/20 02:33:53;57939.00;0.19;100.91;0.00;0.00;0.62;;;;;14.60;1.00;;;;;;2280547;61;1413;-89
2020/12/20 02:36:20;97786.00;0.33;169.75;0.00;0.00;0.62;;;;;14.40;1.00;;;;;;2280573;61;1131;-89
2020/12/20 02:38:47;26184.00;0.09;45.98;0.00;0.00;0.62;;;;;14.00;1.00;;;;;;2270141;61;1049;-88
2020/12/20 02:41:16;103635.00;0.35;179.85;0.00;0.00;0.62;;;;;13.30;1.00;;;;;;2280565;61;1981;-88
2020/12/20 02:43:43;112866.00;0.38;195.78;0.00;0.00;0.62;;;;;13.10;1.00;;;;;;2270079;61;1434;-90
2020/12/20 02:46:09;57002.00;0.19;99.29;0.00;0.00;0.62;;;;;13.10;1.00;;;;;;2276716;61;1016;-89
2020/12/20 02:48:36;70341.00;0.23;122.35;0.00;0.00;0.62;;;;;13.00;1.00;;;;;;2273442;61;1015;-89
2020/12/20 02:51:02;146720.00;0.49;254.15;31722.00;0.11;55.56;;;;;13.00;1.00;;;;;;2273413;61;1002;-90
2020/12/20 02:53:29;54760.00;0.18;95.42;0.00;0.00;0.62;;;;;13.20;1.00;;;;;;2280517;61;1348;-88
2020/12/20 02:55:57;90759.00;0.30;157.62;0.00;0.00;0.62;;;;;13.30;1.00;;;;;;2280495;61;989;-88
2020/12/20 02:58:23;65923.00;0.22;114.71;0.00;0.00;0.62;;;;;13.00;1.00;;;;;;2270128;61;968;-89
2020/12/20 03:00:49;116606496.00;388.69;64222756.00;116554664.00;388.52;64137072.00;;;;;13.30;1.00;;;;;;2273386;61;2000;-90
2020/12/20 03:03:16;99665.00;0.33;172.99;0.00;0.00;0.62;;;;;13.50;1.00;;;;;;2280479;61;981;-90
2020/12/20 03:05:42;86046.00;0.29;149.48;0.00;0.00;0.62;;;;;13.80;1.00;;;;;;2280436;61;1323;-90
2020/12/20 03:08:09;0.00;0.00;0.62;0.00;0.00;0.62;;;;;14.00;1.00;;;;;;2280473;61;1125;-90
2020/12/20 03:10:35;0.00;0.00;0.62;0.00;0.00;0.62;;;;;14.00;1.00;;;;;;2280491;61;981;-89
2020/12/20 03:13:03;0.00;0.00;0.62;0.00;0.00;0.62;;;;;13.90;1.00;;;;;;2280447;61;1033;-89
2020/12/20 03:15:29;126819.00;0.42;219.84;0.00;0.00;0.62;;;;;14.00;1.00;;;;;;2280456;61;1327;-89
2020/12/20 03:17:56;104894.00;0.35;182.02;0.00;0.00;0.62;;;;;13.80;1.00;;;;;;2273374;61;994;-89
2020/12/20 03:20:22;32209.00;0.11;56.41;0.00;0.00;0.62;;;;;13.80;1.00;;;;;;2280412;61;1985;-90
2020/12/20 03:22:49;14157.00;0.05;25.15;0.00;0.00;0.62;;;;;13.70;1.00;;;;;;2280428;61;1009;-88
2020/12/20 03:25:15;24539.00;0.08;43.13;0.00;0.00;0.62;;;;;13.70;1.00;;;;;;2280390;61;1299;-90
2020/12/20 03:27:42;59253.00;0.20;103.19;0.00;0.00;0.62;;;;;13.90;1.00;;;;;;2273286;61;956;-91
2020/12/20 03:30:09;22702.00;0.08;39.95;0.00;0.00;0.62;;;;;14.10;1.00;;;;;;2279978;61;1005;-89
2020/12/20 03:32:36;23593.00;0.08;41.49;0.00;0.00;0.62;;;;;14.30;1.00;;;;;;2280417;61;898;-90
2020/12/20 03:35:03;0.00;0.00;0.62;0.00;0.00;0.62;;;;;14.30;1.00;;;;;;2280394;61;1433;-89
2020/12/20 03:37:29;0.00;0.00;0.62;0.00;0.00;0.62;;;;;14.40;1.00;;;;;;2280922;61;1105;-88
2020/12/20 03:39:56;89291.00;0.30;155.08;0.00;0.00;0.62;;;;;14.40;1.00;;;;;;2281036;61;1998;-89
2020/12/20 03:42:22;74989.00;0.25;130.38;0.00;0.00;0.62;;;;;14.50;1.00;;;;;;2268433;61;1003;-89
2020/12/20 03:44:49;193168.00;0.64;334.16;59609.00;0.20;103.80;;;;;14.50;1.00;;;;;;2261776;61;1376;-89
2020/12/20 03:47:16;69710.00;0.23;121.26;0.00;0.00;0.62;;;;;14.20;1.00;;;;;;2260406;61;982;-89
2020/12/20 03:49:43;44333.00;0.15;77.38;0.00;0.00;0.62;;;;;13.80;1.00;;;;;;2263644;61;986;-90
2020/12/20 03:52:09;0.00;0.00;0.62;0.00;0.00;0.62;;;;;14.00;1.00;;;;;;2260445;61;1071;-89
2020/12/20 03:54:36;260471.00;0.87;449.96;87859.00;0.29;152.61;;;;;13.90;1.00;;;;;;2260294;61;1326;-91
2020/12/20 03:57:02;0.00;0.00;0.62;0.00;0.00;0.62;;;;;13.70;1.00;;;;;;2260400;61;990;-89
2020/12/20 03:59:29;15516.00;0.05;27.50;0.00;0.00;0.62;;;;;14.10;1.00;;;;;;2260353;61;1994;-89
2020/12/20 04:01:56;114839.00;0.38;199.18;18278.00;0.06;32.29;;;;;14.30;1.00;;;;;;2260434;61;1022;-89
2020/12/20 04:04:23;0.00;0.00;0.62;0.00;0.00;0.62;;;;;14.50;1.00;;;;;;2261275;61;1402;-87
2020/12/20 04:06:49;190959.00;0.64;330.36;20132.00;0.07;35.50;;;;;14.40;1.00;;;;;;2274815;61;1057;-90
2020/12/20 04:09:16;0.00;0.00;0.62;0.00;0.00;0.62;;;;;14.30;1.00;;;;;;2281021;61;1114;-90
2020/12/20 04:11:42;1308.00;0.00;2.89;0.00;0.00;0.62;;;;;14.00;1.00;;;;;;2281042;61;1008;-89
2020/12/20 04:14:09;25217.00;0.08;44.30;0.00;0.00;0.62;;;;;14.00;1.00;;;;;;2280850;61;1655;-90
2020/12/20 04:16:35;12913.00;0.04;23.00;0.00;0.00;0.62;;;;;13.70;1.00;;;;;;2281015;61;989;-89
2020/12/20 04:19:02;40668.00;0.14;71.04;0.00;0.00;0.62;;;;;13.70;1.00;;;;;;2281016;61;896;-88
2020/12/20 04:21:29;73073.00;0.24;127.07;0.00;0.00;0.62;;;;;13.20;1.00;;;;;;2281015;61;1961;-88
2020/12/20 04:23:56;152456.00;0.51;264.04;0.00;0.00;0.62;;;;;13.20;1.00;;;;;;2272335;61;1421;-88
2020/12/20 04:26:22;26122.00;0.09;45.87;0.00;0.00;0.62;;;;;13.00;1.00;;;;;;2272455;61;1007;-89
2020/12/20 04:28:49;0.00;0.00;0.62;0.00;0.00;0.62;;;;;13.20;1.00;;;;;;2272449;61;1016;-90
2020/12/20 04:31:15;23618.00;0.08;41.53;0.00;0.00;0.62;;;;;12.90;1.00;;;;;;2269027;61;953;-88
2020/12/20 04:33:42;49089.00;0.16;85.61;0.00;0.00;0.62;;;;;13.00;1.00;;;;;;2272392;61;1380;-89
2020/12/20 04:36:08;199540.00;0.67;345.13;34067.00;0.11;59.62;;;;;12.90;1.00;;;;;;2272400;61;948;-90
2020/12/20 04:38:36;17308.00;0.06;30.61;0.00;0.00;0.62;;;;;12.90;1.00;;;;;;2265696;61;967;-89
2020/12/20 04:41:03;83911.00;0.28;145.79;0.00;0.00;0.62;;;;;12.50;1.00;;;;;;2269901;61;1925;-89
2020/12/20 04:43:31;0.00;0.00;0.62;0.00;0.00;0.62;;;;;12.50;1.00;;;;;;2280918;61;1312;-88
2020/12/20 04:45:58;12563.00;0.04;22.39;0.00;0.00;0.62;;;;;12.70;1.00;;;;;;2273869;61;998;-88
2020/12/20 04:48:36;68596.00;0.23;119.33;0.00;0.00;0.62;;;;;13.10;1.00;;;;;;2272009;61;1027;-89
2020/12/20 04:51:04;186217.00;0.62;322.20;77837.00;0.26;135.30;;;;;13.10;1.00;;;;;;2272390;61;918;-88
2020/12/20 04:53:31;173408.00;0.58;300.14;79736.00;0.27;138.58;;;;;13.20;1.00;;;;;;2272368;61;1314;-90
2020/12/20 04:56:03;181755.00;0.61;314.51;77119.00;0.26;134.06;;;;;13.40;1.00;;;;;;2268208;61;989;-89
2020/12/20 04:58:29;228821.00;0.76;395.52;85136.00;0.28;147.91;;;;;13.80;1.00;;;;;;2261515;61;1066;-90
2020/12/20 05:00:57;196077.00;0.65;339.17;80882.00;0.27;140.56;;;;;14.00;1.00;;;;;;2268177;61;1914;-89
2020/12/20 05:03:23;290957.00;0.97;502.37;76562.00;0.26;133.10;;;;;13.80;1.00;;;;;;2268267;61;1126;-88
2020/12/20 05:05:50;344519.00;1.15;594.44;83096.00;0.28;144.38;;;;;13.60;1.00;;;;;;2269239;61;1478;-89
2020/12/20 05:08:21;194085.00;0.65;335.74;72351.00;0.24;125.82;;;;;13.90;1.00;;;;;;2272317;61;1037;-90
2020/12/20 05:10:48;289650.00;0.97;500.13;84388.00;0.28;146.62;;;;;14.10;1.00;;;;;;2265599;61;1018;-90
2020/12/20 05:13:16;238719.00;0.80;412.55;80547.00;0.27;139.98;;;;;14.30;1.00;;;;;;2273899;61;1024;-88
2020/12/20 05:15:42;204718.00;0.68;354.04;76651.00;0.26;133.25;;;;;14.60;1.00;;;;;;2280805;61;1402;-88
2020/12/20 05:18:11;250765.00;0.84;433.27;89477.00;0.30;155.40;;;;;14.70;1.00;;;;;;2280827;61;1064;-89
2020/12/20 05:20:39;258538.00;0.86;446.63;88527.00;0.30;153.76;;;;;14.70;1.00;;;;;;2273696;61;1995;-88
2020/12/20 05:23:07;209202.00;0.70;361.76;79587.00;0.27;138.32;;;;;14.60;1.00;;;;;;2273683;61;940;-89
2020/12/20 05:25:34;165665.00;0.55;286.80;82773.00;0.28;143.83;;;;;14.60;1.00;;;;;;2280735;61;1285;-89
2020/12/20 05:28:09;417150.00;1.39;719.29;170038.00;0.57;294.33;;;;;14.40;1.00;;;;;;2280820;61;1018;-90
2020/12/20 05:30:36;251598.00;0.84;434.70;91806.00;0.31;159.43;;;;;14.40;1.00;;;;;;2280759;61;1106;-88
2020/12/20 05:33:04;0.00;0.00;0.62;0.00;0.00;0.62;;;;;14.50;1.00;;;;;;2280752;61;1026;-88
2020/12/20 05:35:32;100515.00;0.34;174.46;0.00;0.00;0.62;;;;;14.70;1.00;;;;;;2272088;61;1304;-88
2020/12/20 05:37:59;0.00;0.00;0.62;0.00;0.00;0.62;;;;;14.60;1.00;;;;;;2272215;61;1028;-89
2020/12/20 05:40:28;136497.00;0.45;236.53;0.00;0.00;0.62;;;;;14.40;1.00;;;;;;2262172;61;1907;-89
2020/12/20 05:42:57;224181.00;0.75;387.54;44625.00;0.15;77.89;;;;;13.80;1.00;;;;;;2272161;61;1053;-88
2020/12/20 05:45:26;99044.00;0.33;171.92;0.00;0.00;0.62;;;;;13.60;1.00;;;;;;2272076;61;1340;-89
2020/12/20 05:47:54;154707.00;0.52;267.92;3629.00;0.01;6.91;;;;;13.50;1.00;;;;;;2272211;61;1036;-89
2020/12/20 05:50:21;8131.00;0.03;14.71;0.00;0.00;0.62;;;;;13.50;1.00;;;;;;2272192;61;918;-90
2020/12/20 05:53:02;39104.00;0.13;68.34;0.00;0.00;0.62;;;;;13.70;1.00;;;;;;2267094;61;949;-90
2020/12/20 05:55:36;111086.00;0.37;192.70;0.00;0.00;0.62;;;;;13.90;1.00;;;;;;2280720;61;1430;-88
2020/12/20 05:58:14;0.00;0.00;0.62;0.00;0.00;0.62;;;;;13.90;1.00;;;;;;2270269;61;955;-88
2020/12/20 06:00:42;0.00;0.00;0.62;0.00;0.00;0.62;;;;;13.70;1.00;;;;;;2280525;61;1943;-89
2020/12/20 06:03:12;18347.00;0.06;32.41;0.00;0.00;0.62;;;;;13.70;1.00;;;;;;2280678;61;1051;-89
2020/12/20 06:05:40;0.00;0.00;0.62;0.00;0.00;0.62;;;;;13.90;1.00;;;;;;2276882;61;1392;-89
2020/12/20 06:08:09;153851.00;0.51;266.44;0.00;0.00;0.62;;;;;13.80;1.00;;;;;;2273540;61;963;-89
2020/12/20 06:10:41;23512.00;0.08;41.35;0.00;0.00;0.62;;;;;14.10;1.00;;;;;;2280685;61;1015;-89
2020/12/20 06:13:10;0.00;0.00;0.62;0.00;0.00;0.62;;;;;14.20;1.00;;;;;;2280679;61;991;-89
2020/12/20 06:15:39;55273.00;0.18;96.30;0.00;0.00;0.62;;;;;14.40;1.00;;;;;;2271980;61;1383;-90
2020/12/20 06:18:15;28686.00;0.10;50.31;0.00;0.00;0.62;;;;;14.50;1.00;;;;;;2272073;61;1068;-90
2020/12/20 06:20:54;68174.00;0.23;118.60;0.00;0.00;0.62;;;;;14.60;1.00;;;;;;2271982;61;1996;-89
2020/12/20 06:23:23;72630.00;0.24;126.30;0.00;0.00;0.62;;;;;14.30;1.00;;;;;;2272019;61;1126;-90
2020/12/20 06:25:50;42148.00;0.14;73.60;0.00;0.00;0.62;;;;;14.40;1.00;;;;;;2272070;61;1358;-90
2020/12/20 06:28:20;28905.00;0.10;50.69;0.00;0.00;0.62;;;;;14.60;1.00;;;;;;2272018;61;1115;-90
2020/12/20 06:30:47;54852.00;0.18;95.58;0.00;0.00;0.62;;;;;14.50;1.00;;;;;;2272036;61;1029;-89
2020/12/20 06:33:33;119266.00;0.40;206.82;0.00;0.00;0.62;;;;;14.40;1.00;;;;;;2274911;61;1031;-89
2020/12/20 06:36:03;0.00;0.00;0.62;0.00;0.00;0.62;;;;;14.40;1.00;;;;;;2279845;61;1158;-90
2020/12/20 06:38:29;0.00;0.00;0.62;0.00;0.00;0.62;;;;;14.50;1.00;;;;;;2280568;61;1059;-88
2020/12/20 06:40:56;170158.00;0.57;294.54;30108.00;0.10;52.77;;;;;14.10;1.00;;;;;;2276758;61;2016;-89
2020/12/20 06:43:31;64232.00;0.21;111.79;0.00;0.00;0.62;;;;;12.90;1.00;;;;;;2267891;61;1031;-88
2020/12/20 06:45:58;61991.00;0.21;107.92;0.00;0.00;0.62;;;;;11.80;1.00;;;;;;2263880;61;1004;-88
2020/12/20 06:48:34;56989.00;0.19;99.27;0.00;0.00;0.62;;;;;11.30;1.00;;;;;;2263850;61;971;-87
2020/12/20 06:51:02;171407.00;0.57;296.69;36954.00;0.12;64.62;;;;;11.20;1.00;;;;;;2263907;61;1035;-86
2020/12/20 06:53:51;225496.00;0.75;389.80;90193.00;0.30;156.64;;;;;11.70;2.60;;;;;;2263868;61;1305;-89
2020/12/20 06:56:19;28709.00;0.10;50.35;0.00;0.00;0.62;;;;;12.00;1.00;;;;;;2243889;62;996;-89
2020/12/20 06:58:47;9307.00;0.03;16.75;0.00;0.00;0.62;;;;;11.90;1.00;;;;;;2243921;62;1593;-87
2020/12/20 07:01:35;84380.00;0.28;146.60;0.00;0.00;0.62;;;;;12.00;1.00;;;;;;2245501;61;1916;-87
2020/12/20 07:04:03;264213.00;0.88;456.39;79058.00;0.26;137.41;;;;;12.00;1.00;;;;;;2252076;61;1424;-88
2020/12/20 07:06:30;127696.00;0.43;221.36;0.00;0.00;0.62;;;;;11.50;1.00;;;;;;2255858;61;1626;-87
2020/12/20 07:09:04;141776.00;0.47;245.63;0.00;0.00;0.62;;;;;11.30;1.00;;;;;;2255821;61;1011;-88
2020/12/20 07:11:30;233049.00;0.78;402.79;0.00;0.00;0.62;;;;;11.20;1.00;;;;;;2255541;61;926;-87
2020/12/20 07:13:58;213730.00;0.71;369.55;34252.00;0.11;59.94;;;;;11.30;1.00;;;;;;2257186;61;1423;-87
2020/12/20 07:16:37;19824.00;0.07;34.97;0.00;0.00;0.62;;;;;11.20;1.00;;;;;;2259865;61;995;-88
2020/12/20 07:19:05;174095.00;0.58;301.32;0.00;0.00;0.62;;;;;11.10;1.00;;;;;;2259826;61;1694;-89
2020/12/20 07:21:56;245117.00;0.82;423.55;0.00;0.00;0.62;;;;;11.40;1.00;;;;;;2259786;61;1997;-87
2020/12/20 07:24:24;14789.00;0.05;26.25;0.00;0.00;0.62;;;;;11.20;1.00;;;;;;2235863;62;1414;-88
2020/12/20 07:26:53;191579.00;0.64;331.43;0.00;0.00;0.62;;;;;11.00;1.00;;;;;;2235975;62;1061;-88
2020/12/20 07:29:22;41242.00;0.14;72.04;0.00;0.00;0.62;;;;;10.90;1.00;;;;;;2239278;62;1687;-87
2020/12/20 07:31:53;196728.00;0.66;340.29;0.00;0.00;0.62;;;;;11.00;1.00;;;;;;2243878;62;1058;-87
2020/12/20 07:34:21;202926.00;0.68;350.96;37781.00;0.13;66.05;;;;;11.00;1.00;;;;;;2248829;61;1429;-87
2020/12/20 07:36:47;13350.00;0.04;23.75;0.00;0.00;0.62;;;;;11.20;1.00;;;;;;2247724;61;1004;-85
2020/12/20 07:39:14;160528.00;0.54;277.95;13571.00;0.05;24.14;;;;;11.30;1.00;;;;;;2247447;62;1207;-84
2020/12/20 07:41:41;7226.00;0.02;13.14;0.00;0.00;0.62;;;;;11.20;1.00;;;;;;2242587;61;2013;-88
2020/12/20 07:44:09;5810.00;0.02;10.69;0.00;0.00;0.62;;;;;11.20;1.00;;;;;;2252412;61;1343;-87
2020/12/20 07:46:37;128009.00;0.43;221.90;0.00;0.00;0.62;;;;;11.30;1.00;;;;;;2255810;61;937;-88
2020/12/20 07:49:05;10663.00;0.04;19.10;0.00;0.00;0.62;;;;;11.20;1.00;;;;;;2252475;61;1095;-89
2020/12/20 07:51:33;31412.00;0.10;55.03;0.00;0.00;0.62;;;;;11.50;1.20;;;;;;2249161;61;992;-88
2020/12/20 07:54:02;52484.00;0.17;91.48;0.00;0.00;0.62;;;;;11.60;1.00;;;;;;2256880;61;1408;-87
2020/12/20 07:56:30;197851.00;0.66;342.22;0.00;0.00;0.62;;;;;11.30;1.00;;;;;;2263722;61;998;-88
2020/12/20 07:58:58;14109.00;0.05;25.07;0.00;0.00;0.62;;;;;11.10;1.00;;;;;;2260172;61;1020;-88
2020/12/20 08:04:05;104500.00;0.35;181.34;0.00;0.00;0.62;;;;;11.50;1.00;;;;;;2282217;61;1433;-88
2020/12/20 08:06:35;68461.00;0.23;119.10;0.00;0.00;0.62;;;;;11.30;1.00;;;;;;2273250;61;963;-88
2020/12/20 08:09:07;258177.00;0.86;446.01;56364.00;0.19;98.19;;;;;11.30;1.00;;;;;;2280302;61;962;-90
2020/12/20 08:11:34;45764.00;0.15;79.86;0.00;0.00;0.62;;;;;11.50;1.00;;;;;;2280307;61;940;-88
2020/12/20 08:14:02;29778.00;0.10;52.20;0.00;0.00;0.62;;;;;11.60;1.00;;;;;;2280353;61;1465;-87
2020/12/20 08:16:32;238404.00;0.79;412.01;0.00;0.00;0.62;;;;;11.50;1.00;;;;;;2273144;61;1030;-88
2020/12/20 08:19:01;24509.00;0.08;43.08;0.00;0.00;0.62;;;;;11.70;1.00;;;;;;2276595;61;1024;-87
2020/12/20 08:21:49;51647.00;0.17;90.03;0.00;0.00;0.62;;;;;11.70;1.00;;;;;;2271721;61;1927;-89
2020/12/20 08:24:16;86187.00;0.29;149.72;0.00;0.00;0.62;;;;;11.90;1.00;;;;;;2265742;61;1394;-87
2020/12/20 08:26:43;193985.00;0.65;335.57;7634.00;0.03;13.85;;;;;11.90;1.00;;;;;;2265493;61;1046;-89
2020/12/20 08:29:13;139435.00;0.46;241.60;0.00;0.00;0.62;;;;;11.60;1.00;;;;;;2272358;61;969;-86
2020/12/20 08:31:40;133737.00;0.45;231.77;28523.00;0.10;50.03;;;;;11.60;1.00;;;;;;2272399;61;939;-90
2020/12/20 08:34:15;265477.00;0.88;458.57;0.00;0.00;0.62;;;;;11.70;1.00;;;;;;2265611;61;1341;-89
2020/12/20 08:36:43;166717.00;0.56;288.61;0.00;0.00;0.62;;;;;11.80;1.00;;;;;;2272439;61;1057;-87
2020/12/20 08:39:11;61940.00;0.21;107.83;0.00;0.00;0.62;;;;;12.00;1.00;;;;;;2275607;61;1051;-88
2020/12/20 08:41:37;22334.00;0.07;39.31;0.00;0.00;0.62;;;;;11.60;1.00;;;;;;2280920;61;1988;-88
2020/12/20 08:44:06;303004.00;1.01;523.08;67185.00;0.22;116.90;;;;;11.50;1.00;;;;;;2280924;61;1336;-89
2020/12/20 08:46:35;72997.00;0.24;126.94;0.00;0.00;0.62;;;;;11.70;1.80;;;;;;2273875;61;955;-89
2020/12/20 08:49:19;127522.00;0.43;221.06;16831.00;0.06;29.78;;;;;12.30;1.00;;;;;;2280953;61;934;-90
2020/12/20 08:51:48;31761.00;0.11;55.63;0.00;0.00;0.62;;;;;12.40;1.00;;;;;;2270494;61;955;-87
2020/12/20 08:54:25;36484.00;0.12;63.80;0.00;0.00;0.62;;;;;12.40;1.00;;;;;;2280795;61;1320;-90
2020/12/20 08:56:53;62830.00;0.21;109.37;0.00;0.00;0.62;;;;;12.50;1.00;;;;;;2273749;61;960;-88
2020/12/20 08:59:32;31037.00;0.10;54.38;0.00;0.00;0.62;;;;;12.30;1.00;;;;;;2280439;61;954;-89
2020/12/20 09:02:00;85510.00;0.29;148.55;0.00;0.00;0.62;;;;;12.00;1.00;;;;;;2280882;61;1990;-87
2020/12/20 09:04:54;179302.00;0.60;310.29;49451.00;0.16;86.24;;;;;11.90;1.00;;;;;;2276928;61;1340;-87
2020/12/20 09:07:31;278548.00;0.93;481.04;84248.00;0.28;146.37;;;;;11.90;1.00;;;;;;2280795;61;1046;-87
2020/12/20 09:10:07;553386.00;1.84;953.80;115519.00;0.39;200.35;;;;;11.80;1.00;;;;;;2280804;61;1585;-89
2020/12/20 09:12:34;393378.00;1.31;678.42;0.00;0.00;0.62;;;;;12.00;1.00;;;;;;2280851;61;1130;-88
2020/12/20 09:15:06;571225.00;1.90;984.56;83553.00;0.28;145.17;;;;;12.00;1.00;;;;;;2280755;61;1599;-87
2020/12/20 09:17:36;292358.00;0.97;504.78;0.00;0.00;0.62;;;;;12.00;1.00;;;;;;2280829;61;1737;-88
2020/12/20 09:20:05;571974.00;1.91;985.85;81695.00;0.27;141.97;;;;;11.80;1.00;;;;;;2280749;61;2016;-88
2020/12/20 09:22:50;606341.00;2.02;1045.17;84139.00;0.28;146.19;;;;;11.30;1.00;;;;;;2280805;61;1603;-90
2020/12/20 09:25:33;184633.00;0.62;319.47;0.00;0.00;0.62;;;;;11.30;1.00;;;;;;2280833;61;1465;-89
2020/12/20 09:28:01;87925.00;0.29;152.72;0.00;0.00;0.62;;;;;11.40;1.00;;;;;;2280831;61;1140;-88
2020/12/20 09:30:39;218402.00;0.73;377.59;0.00;0.00;0.62;;;;;11.70;1.00;;;;;;2280773;61;1699;-88
2020/12/20 09:33:16;127427.00;0.42;220.89;0.00;0.00;0.62;;;;;11.70;1.00;;;;;;2280838;61;971;-89
2020/12/20 09:35:59;88264.00;0.29;153.31;0.00;0.00;0.62;;;;;11.90;1.00;;;;;;2270278;61;1486;-89
2020/12/20 09:38:29;91709.00;0.31;159.26;0.00;0.00;0.62;;;;;12.00;1.00;;;;;;2272140;61;928;-89
2020/12/20 09:41:02;104190.00;0.35;180.80;0.00;0.00;0.62;;;;;11.90;1.00;;;;;;2265469;61;1910;-89
2020/12/20 09:43:28;0.00;0.00;0.62;0.00;0.00;0.62;;;;;12.20;1.00;;;;;;2265489;61;1355;-88
2020/12/20 09:45:57;52405.00;0.17;91.35;0.00;0.00;0.62;;;;;12.50;1.00;;;;;;2272098;61;1050;-87
2020/12/20 09:48:24;217618.00;0.73;376.24;0.00;0.00;0.62;;;;;12.70;1.00;;;;;;2268693;61;1027;-89
2020/12/20 09:50:50;381159.00;1.27;657.42;32216.00;0.11;56.42;;;;;12.70;1.00;;;;;;2272108;61;1652;-88
2020/12/20 09:53:17;244811.00;0.82;423.03;0.00;0.00;0.62;;;;;13.00;1.00;;;;;;2271960;61;1126;-89
2020/12/20 09:55:43;90102.00;0.30;156.48;0.00;0.00;0.62;;;;;13.10;1.00;;;;;;2266922;61;1315;-88
2020/12/20 09:58:13;0.00;0.00;0.62;0.00;0.00;0.62;;;;;13.20;1.00;;;;;;2272045;61;1192;-88
2020/12/20 10:00:40;86134.00;0.29;149.63;0.00;0.00;0.62;;;;;13.20;1.00;;;;;;2272084;61;2000;-87
2020/12/20 10:03:07;66011.00;0.22;114.87;0.00;0.00;0.62;;;;;13.20;1.00;;;;;;2272065;61;1074;-88
2020/12/20 10:05:34;274347.00;0.91;473.82;0.00;0.00;0.62;;;;;13.30;1.00;;;;;;2272048;61;1638;-87
2020/12/20 10:08:01;222363.00;0.74;384.41;9199.00;0.03;16.56;;;;;13.20;1.00;;;;;;2271923;61;949;-87
2020/12/20 10:10:30;40246.00;0.13;70.31;0.00;0.00;0.62;;;;;13.10;1.00;;;;;;2272264;61;1043;-87
2020/12/20 10:12:56;0.00;0.00;0.62;0.00;0.00;0.62;;;;;12.90;1.00;;;;;;2268067;61;1029;-89
2020/12/20 10:15:24;195636.00;0.65;338.41;0.00;0.00;0.62;;;;;13.00;1.00;;;;;;2289994;55;2421;31
2020/12/20 10:17:51;554953.00;1.85;956.50;0.00;0.00;0.62;;;;;12.90;1.00;;;;;;2282637;61;1381;-88
2020/12/20 10:20:18;0.00;0.00;0.62;0.00;0.00;0.62;;;;;13.10;1.00;;;;;;2271804;61;1935;-88
2020/12/20 10:22:45;121132.00;0.40;210.04;0.00;0.00;0.62;;;;;13.20;1.00;;;;;;2263964;61;1034;-89
2020/12/20 10:25:12;27782.00;0.09;48.74;0.00;0.00;0.62;;;;;13.40;1.00;;;;;;2260624;61;1329;-89
2020/12/20 10:27:39;14539.00;0.05;25.81;0.00;0.00;0.62;;;;;13.70;1.00;;;;;;2264034;61;1105;-89
2020/12/20 10:30:06;0.00;0.00;0.62;0.00;0.00;0.62;;;;;13.70;1.00;;;;;;2254131;61;1006;-88
2020/12/20 10:32:33;88826.00;0.30;154.28;0.00;0.00;0.62;;;;;13.70;1.00;;;;;;2257367;61;979;-88
2020/12/20 10:35:00;131149.00;0.44;227.31;54733.00;0.18;95.37;;;;;13.80;1.00;;;;;;2253974;61;1295;-88
2020/12/20 10:37:26;74104.00;0.25;128.85;0.00;0.00;0.62;;;;;13.90;1.00;;;;;;2264948;61;1134;-88
2020/12/20 10:39:53;41664.00;0.14;72.77;0.00;0.00;0.62;;;;;13.90;1.00;;;;;;2273016;61;1599;-90
2020/12/20 10:42:19;144653.00;0.48;250.59;0.00;0.00;0.62;;;;;14.00;1.00;;;;;;2280509;61;1929;-90
2020/12/20 10:44:46;39097.00;0.13;68.33;0.00;0.00;0.62;;;;;14.20;1.00;;;;;;2271868;61;1412;-89
2020/12/20 10:47:12;142180.00;0.47;246.33;0.00;0.00;0.62;;;;;14.10;1.00;;;;;;2265148;61;978;-88
2020/12/20 10:49:40;77401.00;0.26;134.55;0.00;0.00;0.62;;;;;14.30;1.00;;;;;;2272058;61;947;-87
2020/12/20 10:52:06;57585.00;0.19;100.30;0.00;0.00;0.62;;;;;14.50;1.00;;;;;;2272057;61;1135;-90
2020/12/20 10:54:33;247288.00;0.82;427.29;0.00;0.00;0.62;;;;;14.80;1.00;;;;;;2272012;61;1322;-88
2020/12/20 10:57:01;68613.00;0.23;119.36;0.00;0.00;0.62;;;;;14.80;1.00;;;;;;2271953;61;1115;-89
2020/12/20 10:59:30;14227.00;0.05;25.27;0.00;0.00;0.62;;;;;14.80;1.00;;;;;;2271998;61;929;-89
2020/12/20 11:01:57;78220.00;0.26;135.96;0.00;0.00;0.62;;;;;14.80;1.00;;;;;;2273050;61;2001;-90
2020/12/20 11:04:24;165175.00;0.55;285.95;31543.00;0.11;55.25;;;;;14.90;1.00;;;;;;2280463;61;1394;-90
2020/12/20 11:06:56;472844.00;1.58;815.08;28971.00;0.10;50.80;;;;;14.90;1.00;;;;;;2276774;61;1027;-89
2020/12/20 11:09:23;105358.00;0.35;182.82;0.00;0.00;0.62;;;;;14.90;1.00;;;;;;2280543;61;928;-90
2020/12/20 11:11:49;0.00;0.00;0.62;0.00;0.00;0.62;;;;;14.90;1.00;;;;;;2275964;61;1069;-90
2020/12/20 11:14:16;57424.00;0.19;100.02;0.00;0.00;0.62;;;;;15.00;1.00;;;;;;2267863;61;1369;-88
2020/12/20 11:16:42;313074.00;1.04;540.39;59656.00;0.20;103.88;;;;;15.20;1.00;;;;;;2264376;61;1005;-90
2020/12/20 11:19:09;49576.00;0.17;86.45;0.00;0.00;0.62;;;;;15.10;1.00;;;;;;2267947;61;997;-90
2020/12/20 11:21:36;238871.00;0.80;412.81;61939.00;0.21;107.83;;;;;15.00;1.00;;;;;;2267813;61;1966;-88
2020/12/20 11:24:04;112475.00;0.37;195.10;0.00;0.00;0.62;;;;;15.10;1.00;;;;;;2267824;61;1457;-89